Time;durP1;ratioP1;P1;durP2;ratioP2;P2;SDS_P1;SDS_P2;PMS_P1;PMS_P2;Temp;Humidity;BMP_temperature;BMP_pressure;BME280_temperature;BME280_humidity;BME280_pressure;Samples;Min_cycle;Max_cycle;Signal;HPM_P1;HPM_P2
2022/09/07 00:01:03;;;;;;;4.13;3.00;;;20.70;99.90;;;21.43;73.25;100304.66;5008865;28;20637;-65
2022/09/07 00:03:30;;;;;;;3.23;2.93;;;20.70;99.90;;;21.46;73.03;100306.09;5009979;28;20634;-64
2022/09/07 00:05:57;;;;;;;3.03;2.73;;;20.70;99.90;;;21.49;72.94;100314.50;5012929;28;20697;-65
2022/09/07 00:08:26;;;;;;;3.50;3.17;;;20.70;99.90;;;21.48;73.19;100325.31;5013864;28;20644;-64
2022/09/07 00:10:58;;;;;;;3.80;3.50;;;20.80;99.90;;;21.56;72.90;100315.41;5003000;28;20669;-65
2022/09/07 00:13:29;;;;;;;4.03;3.40;;;20.80;99.90;;;21.56;72.91;100333.16;4994352;28;21221;-65
2022/09/07 00:15:57;;;;;;;5.00;3.70;;;20.80;99.90;;;21.50;72.94;100340.06;4992856;28;21348;-64
2022/09/07 00:18:25;;;;;;;5.33;3.33;;;20.80;99.90;;;21.62;72.92;100338.53;4995944;28;20634;-65
2022/09/07 00:21:05;;;;;;;3.07;2.87;;;20.80;99.90;;;21.74;72.43;100328.25;5002683;28;20633;-64
2022/09/07 00:23:34;;;;;;;4.07;3.67;;;20.90;99.90;;;21.89;71.84;100329.03;5013556;28;21208;-64
2022/09/07 00:26:08;;;;;;;4.03;3.70;;;21.00;99.90;;;21.92;72.03;100318.03;5002306;28;20658;-66
2022/09/07 00:28:36;;;;;;;6.70;4.07;;;21.10;99.90;;;21.94;71.70;100321.31;4993321;28;20638;-66
2022/09/07 00:31:09;;;;;;;3.63;3.00;;;21.10;99.90;;;21.92;71.60;100325.16;4998406;28;20644;-66
2022/09/07 00:33:36;;;;;;;15.80;3.73;;;21.10;99.90;;;22.02;71.46;100318.53;5013231;28;20991;-65
2022/09/07 00:36:03;;;;;;;3.70;3.40;;;21.20;99.90;;;22.08;71.19;100309.78;5006557;28;20644;-65
2022/09/07 00:38:30;;;;;;;5.07;4.20;;;21.20;99.90;;;22.16;70.40;100306.19;5010680;28;20667;-65
2022/09/07 00:40:58;;;;;;;6.17;4.03;;;21.30;99.90;;;22.16;69.82;100296.38;5012734;28;21032;-65
2022/09/07 00:43:35;;;;;;;5.07;4.07;;;21.30;99.90;;;22.14;69.86;100294.91;5011982;28;20633;-64
2022/09/07 00:46:05;;;;;;;5.10;4.07;;;21.30;99.90;;;22.15;69.86;100281.44;5012596;28;20653;-64
2022/09/07 00:48:50;;;;;;;5.27;3.83;;;21.30;99.90;;;22.11;69.85;100266.06;5011232;28;21253;-65
2022/09/07 00:51:28;;;;;;;4.67;4.03;;;21.30;99.90;;;21.98;70.32;100263.31;5007228;28;21494;-65
2022/09/07 00:54:05;;;;;;;3.93;3.63;;;21.30;99.90;;;21.87;70.42;100261.19;5019014;28;20632;-65
2022/09/07 00:56:37;;;;;;;3.67;3.37;;;21.20;99.90;;;21.82;70.25;100255.59;5031890;28;20635;-64
2022/09/07 00:59:05;;;;;;;3.70;3.40;;;21.10;99.90;;;21.72;70.29;100252.44;5016628;28;20661;-65
2022/09/07 01:01:32;;;;;;;4.93;3.40;;;21.10;99.90;;;21.72;70.61;100255.09;5000337;28;20638;-67
2022/09/07 01:04:01;;;;;;;4.00;3.70;;;21.00;99.90;;;21.66;70.72;100272.59;4991315;28;20654;-67
2022/09/07 01:06:34;;;;;;;5.07;3.90;;;20.90;99.90;;;21.62;71.15;100290.75;5000039;28;20661;-65
2022/09/07 01:09:23;;;;;;;4.33;3.93;;;20.90;99.90;;;21.63;71.40;100299.56;5011958;28;20633;-64
2022/09/07 01:11:52;;;;;;;3.70;3.40;;;20.90;99.90;;;21.70;71.06;100307.59;5009922;28;20644;-65
2022/09/07 01:14:29;;;;;;;5.77;3.97;;;20.90;99.90;;;21.75;70.52;100310.47;5010011;28;20610;-64
2022/09/07 01:17:35;;;;;;;8.13;4.83;;;20.90;99.90;;;21.83;70.46;100299.78;5010180;28;21235;-64
2022/09/07 01:20:31;;;;;;;5.40;4.80;;;21.00;99.90;;;21.79;70.52;100303.75;5012643;28;20632;-65
2022/09/07 01:23:42;;;;;;;5.50;4.27;;;21.00;99.90;;;21.72;70.77;100310.88;4992511;28;21241;-64
2022/09/07 01:26:30;;;;;;;3.93;3.53;;;21.00;99.90;;;21.73;71.00;100312.50;4991755;28;20661;-63
2022/09/07 01:29:34;;;;;;;5.73;4.00;;;21.00;99.90;;;21.74;71.02;100314.97;5005695;28;20657;-64
2022/09/07 01:32:18;;;;;;;4.50;3.80;;;21.00;99.90;;;21.76;71.00;100309.47;5010231;28;20988;-64
2022/09/07 01:34:52;;;;;;;4.13;3.73;;;21.00;99.90;;;21.67;71.50;100335.31;4992368;28;21073;-65
2022/09/07 01:37:42;;;;;;;5.43;4.10;;;20.90;99.90;;;21.62;71.54;100370.41;5014112;28;20638;-65
2022/09/07 01:40:28;;;;;;;3.83;3.40;;;20.90;99.90;;;21.72;71.26;100396.66;5008032;28;21226;-64
2022/09/07 01:43:04;;;;;;;3.40;3.10;;;20.90;99.90;;;21.77;71.07;100443.88;5009594;28;20640;-65
2022/09/07 01:45:35;;;;;;;3.57;2.70;;;20.90;99.90;;;21.87;71.90;100471.03;5009527;28;20720;-64
2022/09/07 01:48:12;;;;;;;9.47;4.00;;;21.00;99.90;;;21.71;74.72;100436.66;5010994;28;21280;-65
2022/09/07 01:50:55;;;;;;;8.93;3.40;;;21.00;99.90;;;21.70;74.77;100440.34;5011084;28;20618;-64
2022/09/07 01:53:30;;;;;;;7.17;3.87;;;21.00;99.90;;;21.58;77.05;100442.66;4991903;28;20661;-65
2022/09/07 01:56:12;;;;;;;5.60;4.00;;;20.90;99.90;;;21.33;80.29;100417.41;5003730;28;20644;-64
2022/09/07 01:58:45;;;;;;;6.13;5.00;;;20.70;99.90;;;21.12;79.80;100412.03;5010599;28;21243;-65
2022/09/07 02:01:27;;;;;;;9.17;4.13;;;20.60;99.90;;;21.14;80.07;100413.50;5009280;28;20642;-64
2022/09/07 02:04:10;;;;;;;6.20;4.30;;;20.50;99.90;;;21.14;81.24;100399.41;5005627;28;20660;-65
2022/09/07 02:06:57;;;;;;;6.27;4.30;;;20.40;99.90;;;21.09;81.72;100392.00;5007254;28;20646;-65
2022/09/07 02:09:51;;;;;;;6.37;4.80;;;20.40;99.90;;;20.93;83.04;100394.81;5009856;28;20633;-65
2022/09/07 02:12:36;;;;;;;6.83;4.90;;;20.30;99.90;;;20.98;82.63;100395.06;5002594;28;20656;-64
2022/09/07 02:15:29;;;;;;;6.70;4.73;;;20.30;99.90;;;21.00;83.54;100390.41;4990842;28;20831;-64
2022/09/07 02:18:03;;;;;;;7.43;4.90;;;20.30;99.90;;;21.01;84.24;100370.00;4990618;28;20709;-64
2022/09/07 02:20:36;;;;;;;6.90;4.90;;;20.30;99.90;;;21.07;84.38;100356.03;4991912;28;20614;-65
2022/09/07 02:23:16;;;;;;;6.77;4.73;;;20.30;99.90;;;21.02;85.81;100351.25;4990060;28;21210;-64
2022/09/07 02:25:54;;;;;;;3.70;3.30;;;20.40;99.90;;;20.96;86.80;100346.69;5005864;28;21389;-64
2022/09/07 02:28:28;;;;;;;8.60;3.17;;;20.30;99.90;;;21.00;85.49;100341.84;4989378;28;20682;-63
2022/09/07 02:30:55;;;;;;;4.03;3.20;;;20.30;99.90;;;20.71;87.00;100334.72;5002333;28;20632;-64
2022/09/07 02:33:23;;;;;;;6.87;4.33;;;20.20;99.90;;;20.68;86.59;100348.31;5006290;28;20635;-63
2022/09/07 02:35:50;;;;;;;9.03;3.47;;;20.10;99.90;;;20.61;87.44;100332.34;4998042;28;21181;-63
2022/09/07 02:38:18;;;;;;;7.47;4.20;;;20.00;99.90;;;20.51;88.42;100323.81;5003124;28;21252;-64
2022/09/07 02:40:53;;;;;;;8.20;3.70;;;19.90;99.90;;;20.52;88.40;100314.06;5010220;28;21002;-63
2022/09/07 02:43:22;;;;;;;4.40;3.80;;;19.90;99.90;;;20.50;89.22;100313.41;5009541;28;20636;-64
2022/09/07 02:46:53;;;;;;;6.07;3.87;;;19.80;99.90;;;20.50;88.44;100313.41;5010170;28;20625;-65
2022/09/07 02:50:02;;;;;;;6.10;4.37;;;19.90;99.90;;;20.64;87.95;100323.19;4998258;28;20654;-64
2022/09/07 02:53:30;;;;;;;7.50;3.73;;;19.90;99.90;;;20.45;88.71;100323.72;4990755;28;20989;-64
2022/09/07 02:56:41;;;;;;;8.80;4.60;;;19.90;99.90;;;20.32;89.80;100329.66;5009468;28;20637;-64
2022/09/07 02:59:42;;;;;;;7.97;3.47;;;19.80;99.90;;;20.21;90.42;100318.69;5009471;28;21244;-66
2022/09/07 03:02:32;;;;;;;6.43;3.33;;;19.70;99.90;;;20.35;89.37;100324.00;5008174;28;20624;-63
2022/09/07 03:05:28;;;;;;;5.30;3.70;;;19.70;99.90;;;20.23;89.85;100320.13;4999338;28;20741;-64
2022/09/07 03:08:31;;;;;;;6.20;3.40;;;19.60;99.90;;;20.31;89.39;100327.19;5002869;28;20680;-64
2022/09/07 03:10:58;;;;;;;3.60;3.30;;;19.60;99.90;;;20.19;89.88;100334.69;5005822;28;20641;-64
2022/09/07 03:13:28;;;;;;;6.03;3.60;;;19.60;99.90;;;20.12;90.98;100333.78;5017047;28;20645;-64
2022/09/07 03:15:55;;;;;;;6.13;3.60;;;19.50;99.90;;;20.17;90.15;100325.31;5006197;28;20637;-65
2022/09/07 03:18:27;;;;;;;5.97;3.30;;;19.50;99.90;;;20.25;90.08;100320.78;5004803;28;20752;-64
2022/09/07 03:20:54;;;;;;;5.00;3.83;;;19.50;99.90;;;20.01;91.45;100316.50;5007693;28;20633;-63
2022/09/07 03:23:21;;;;;;;6.60;4.03;;;19.40;99.90;;;20.16;90.49;100329.78;5009961;28;20621;-64
2022/09/07 03:25:49;;;;;;;4.87;3.73;;;19.50;99.90;;;20.25;91.37;100336.69;5009488;28;20978;-64
2022/09/07 03:28:16;;;;;;;4.73;3.40;;;19.50;99.90;;;20.21;92.36;100335.38;5009921;28;20685;-64
2022/09/07 03:30:46;;;;;;;5.90;3.40;;;19.50;99.90;;;20.17;92.76;100335.91;5009809;28;20640;-66
2022/09/07 03:33:16;;;;;;;4.40;4.00;;;19.50;99.90;;;20.14;92.50;100334.44;5007470;28;20640;-64
2022/09/07 03:35:45;;;;;;;3.90;3.60;;;19.50;99.90;;;20.16;93.39;100332.41;5010336;28;20612;-64
2022/09/07 03:38:12;;;;;;;7.10;4.40;;;19.50;99.90;;;20.08;95.00;100332.50;5011965;28;21042;-63
2022/09/07 03:40:39;;;;;;;6.10;4.90;;;19.40;99.90;;;20.24;94.39;100328.91;5014294;28;21177;-65
2022/09/07 03:43:06;;;;;;;8.13;5.50;;;19.50;99.90;;;20.22;94.56;100331.72;5006218;28;21017;-64
2022/09/07 03:45:33;;;;;;;5.20;4.60;;;19.50;99.90;;;20.27;94.35;100339.16;4997422;28;20771;-64
2022/09/07 03:48:01;;;;;;;11.17;6.97;;;19.50;99.90;;;20.31;94.16;100337.78;4993688;28;20681;-65
2022/09/07 03:50:28;;;;;;;8.70;5.47;;;19.60;99.90;;;20.34;93.93;100338.22;4993079;28;20976;-64
2022/09/07 03:52:55;;;;;;;8.40;5.50;;;19.60;99.90;;;20.42;93.57;100340.81;4995606;28;20622;-64
2022/09/07 03:55:21;;;;;;;6.33;5.17;;;19.60;99.90;;;20.47;93.37;100333.16;4994044;28;20610;-64
2022/09/07 03:57:48;;;;;;;6.77;5.57;;;19.70;99.90;;;20.44;93.03;100320.28;4995423;28;20654;-65
2022/09/07 04:00:16;;;;;;;8.33;5.53;;;19.70;99.90;;;20.45;93.43;100318.41;4993938;28;20618;-65
2022/09/07 04:02:42;;;;;;;8.43;4.90;;;19.70;99.90;;;20.54;92.31;100315.53;4996100;28;20639;-64
2022/09/07 04:05:10;;;;;;;6.27;4.80;;;19.70;99.90;;;20.53;92.68;100323.66;5013622;28;20626;-64
2022/09/07 04:07:37;;;;;;;5.27;4.13;;;19.80;99.90;;;20.49;92.63;100325.00;5011890;28;21248;-65
2022/09/07 04:10:04;;;;;;;5.70;4.77;;;19.80;99.90;;;20.56;92.25;100317.97;5013593;28;20609;-65
2022/09/07 04:12:31;;;;;;;7.60;4.53;;;19.70;99.90;;;20.46;92.05;100314.78;5019136;28;20643;-64
2022/09/07 04:14:58;;;;;;;6.67;4.40;;;19.70;99.90;;;20.79;90.36;100331.97;5033383;28;20616;-64
2022/09/07 04:17:25;;;;;;;5.00;4.50;;;19.70;99.90;;;20.86;89.94;100333.72;5029117;28;20999;-63
2022/09/07 04:19:52;;;;;;;11.03;5.30;;;19.70;99.90;;;20.95;89.18;100334.44;5033201;28;20641;-66
2022/09/07 04:22:19;;;;;;;6.77;5.00;;;19.70;99.90;;;20.95;89.01;100333.63;5025040;28;20637;-65
2022/09/07 04:24:46;;;;;;;7.43;5.27;;;19.60;99.90;;;20.99;88.62;100327.78;5013842;28;20610;-64
2022/09/07 04:27:13;;;;;;;7.30;4.67;;;19.70;99.90;;;21.01;88.32;100332.88;5012111;28;21042;-64
2022/09/07 04:29:40;;;;;;;6.17;4.63;;;19.70;99.90;;;21.01;88.35;100336.38;4997623;28;21250;-64
2022/09/07 04:32:07;;;;;;;6.87;4.60;;;19.70;99.90;;;20.49;91.46;100338.25;4992701;28;20622;-64
2022/09/07 04:34:39;;;;;;;9.40;4.87;;;19.60;99.90;;;20.42;92.11;100342.66;5006913;28;21099;-64
2022/09/07 04:37:06;;;;;;;6.87;4.17;;;19.60;99.90;;;20.33;92.67;100339.25;5012972;28;20630;-64
2022/09/07 04:39:33;;;;;;;5.50;3.80;;;19.60;99.90;;;20.38;92.55;100342.16;5011706;28;20668;-65
2022/09/07 04:42:00;;;;;;;6.40;4.40;;;19.50;99.90;;;20.33;92.66;100330.47;5012408;28;20645;-63
2022/09/07 04:44:27;;;;;;;5.50;3.60;;;19.60;99.90;;;20.17;93.52;100338.56;4999339;28;20638;-65
2022/09/07 04:46:54;;;;;;;8.93;3.80;;;19.50;99.90;;;20.00;95.22;100338.66;5012202;28;20620;-64
2022/09/07 04:49:20;;;;;;;5.57;3.73;;;19.40;99.90;;;19.90;95.94;100337.25;4999168;28;20654;-64
2022/09/07 04:51:47;;;;;;;6.80;4.60;;;19.30;99.90;;;19.91;96.49;100337.06;4992096;28;20623;-64
2022/09/07 04:54:14;;;;;;;6.53;4.40;;;19.30;99.90;;;19.89;96.39;100344.38;5002365;28;20694;-64
2022/09/07 04:56:41;;;;;;;8.60;4.30;;;19.20;99.90;;;19.94;96.42;100344.69;5012903;28;20608;-64
2022/09/07 04:59:08;;;;;;;11.37;4.60;;;19.20;99.90;;;19.89;96.47;100336.44;5034089;23;21286;-66
2022/09/07 05:01:35;;;;;;;8.70;4.47;;;19.20;99.90;;;19.60;98.87;100327.53;5017212;28;20634;-66
2022/09/07 05:04:03;;;;;;;7.30;4.60;;;19.10;99.90;;;19.55;99.37;100333.34;5015485;28;20642;-66
2022/09/07 05:06:30;;;;;;;12.20;4.30;;;19.00;99.90;;;19.63;98.58;100333.34;5027545;28;20617;-67
2022/09/07 05:08:58;;;;;;;5.60;4.30;;;19.00;99.90;;;19.73;98.16;100330.44;5023899;28;20673;-67
2022/09/07 05:11:26;;;;;;;6.50;3.70;;;19.00;99.90;;;19.51;100.00;100336.53;5011748;28;20613;-66
2022/09/07 05:14:01;;;;;;;6.93;4.73;;;18.90;99.90;;;19.53;100.00;100348.59;5009758;28;20629;-68
2022/09/07 05:16:29;;;;;;;8.27;4.97;;;18.90;99.90;;;19.55;100.00;100345.78;5011934;28;21199;-68
2022/09/07 05:19:02;;;;;;;6.60;4.43;;;19.00;99.90;;;19.55;100.00;100343.94;5001050;28;20750;-67
2022/09/07 05:21:33;;;;;;;7.73;4.30;;;18.90;99.90;;;19.58;100.00;100345.44;4992508;28;20646;-67
2022/09/07 05:24:01;;;;;;;5.93;4.00;;;19.00;99.90;;;19.75;98.88;100342.50;4997906;28;20622;-68
2022/09/07 05:26:31;;;;;;;5.33;4.30;;;19.00;99.90;;;19.82;98.67;100340.81;5010639;28;20724;-68
2022/09/07 05:29:03;;;;;;;9.23;4.90;;;19.10;99.90;;;19.70;99.40;100344.84;5011348;28;20665;-67
2022/09/07 05:31:50;;;;;;;8.20;4.47;;;19.10;99.90;;;19.48;100.00;100355.41;4986225;28;20614;-67
2022/09/07 05:34:17;;;;;;;7.57;4.67;;;19.00;99.90;;;19.78;100.00;100358.03;5005735;28;20642;-67
2022/09/07 05:37:00;;;;;;;9.23;5.00;;;19.10;99.90;;;20.40;96.85;100371.97;5009823;28;20661;-67
2022/09/07 05:39:27;;;;;;;12.57;5.03;;;19.40;99.90;;;21.20;91.66;100372.13;5000570;28;20698;-67
2022/09/07 05:41:55;;;;;;;10.60;4.80;;;20.00;99.90;;;21.98;86.02;100364.25;5006819;28;20634;-68
2022/09/07 05:44:22;;;;;;;8.70;5.33;;;20.60;99.90;;;22.87;82.05;100377.66;5006832;28;21035;-67
2022/09/07 05:47:09;;;;;;;6.60;4.70;;;21.30;99.90;;;23.43;77.64;100378.38;4991127;28;20599;-67
2022/09/07 05:49:37;;;;;;;12.30;5.93;;;21.80;99.90;;;24.07;74.84;100370.78;5011314;28;20669;-67
2022/09/07 05:52:04;;;;;;;8.80;5.27;;;22.40;99.90;;;24.67;71.27;100386.56;4997466;28;20634;-68
2022/09/07 05:54:31;;;;;;;11.23;4.73;;;22.90;99.90;;;24.97;69.81;100380.78;4998192;28;20635;-67
2022/09/07 05:56:57;;;;;;;6.23;4.60;;;23.30;99.90;;;24.95;69.38;100390.88;4991773;28;20611;-67
2022/09/07 05:59:24;;;;;;;10.40;5.00;;;23.40;99.90;;;24.54;70.81;100394.59;5000221;28;21015;-67
2022/09/07 06:01:51;;;;;;;6.17;5.57;;;23.20;99.90;;;24.77;70.93;100393.38;5024830;28;20652;-67
2022/09/07 06:04:18;;;;;;;7.50;5.40;;;23.30;99.90;;;25.15;68.74;100394.31;5009601;28;20721;-67
2022/09/07 06:06:45;;;;;;;6.50;4.90;;;23.60;99.90;;;24.89;68.92;100397.03;5010399;28;20730;-67
2022/09/07 06:09:32;;;;;;;10.20;5.50;;;23.60;99.90;;;24.27;71.45;100384.97;5010383;28;20656;-66
2022/09/07 06:12:03;;;;;;;5.83;5.23;;;23.30;99.90;;;23.87;73.40;100386.69;5004690;28;20697;-67
2022/09/07 06:14:31;;;;;;;7.60;5.27;;;23.00;99.90;;;23.96;73.85;100387.34;4989603;28;20637;-67
2022/09/07 06:16:58;;;;;;;7.50;5.10;;;22.90;99.90;;;25.21;69.38;100393.47;4989765;28;21178;-66
2022/09/07 06:19:25;;;;;;;8.10;5.60;;;23.40;99.90;;;26.50;64.26;100394.78;4992395;28;21214;-67
2022/09/07 06:21:52;;;;;;;6.80;6.00;;;24.20;99.90;;;27.62;61.14;100398.75;4990940;28;20598;-67
2022/09/07 06:24:19;;;;;;;10.33;5.17;;;25.00;99.90;;;29.29;55.78;100394.78;4991046;28;20617;-68
2022/09/07 06:26:46;;;;;;;7.70;5.63;;;26.00;99.90;;;30.45;51.87;100393.19;4990907;28;20618;-65
2022/09/07 06:29:13;;;;;;;5.37;4.90;;;26.90;99.90;;;30.88;49.72;100395.22;4991138;28;20681;-67
2022/09/07 06:31:40;;;;;;;5.57;4.97;;;27.60;99.90;;;31.25;47.49;100400.81;4998051;28;20638;-67
2022/09/07 06:34:26;;;;;;;8.10;5.30;;;28.30;99.90;;;31.82;46.50;100407.44;4991304;28;21199;-67
2022/09/07 06:36:53;;;;;;;6.30;4.90;;;28.50;99.90;;;31.41;47.43;100404.56;5002035;28;20630;-66
2022/09/07 06:39:20;;;;;;;5.10;4.60;;;28.30;99.90;;;31.44;46.67;100407.56;5009422;28;21235;-66
2022/09/07 06:41:47;;;;;;;7.00;4.30;;;28.50;99.90;;;32.67;44.93;100398.47;4999053;28;20645;-67
2022/09/07 06:44:30;;;;;;;9.07;4.93;;;29.20;99.90;;;33.16;43.67;100401.78;4976054;28;20618;-66
2022/09/07 06:46:57;;;;;;;3.70;3.43;;;29.70;99.50;;;34.58;40.87;100392.88;5002519;28;20915;-67
2022/09/07 06:49:25;;;;;;;5.80;3.97;;;30.60;98.40;;;34.57;40.31;100402.88;5009562;28;21133;-68
2022/09/07 06:51:52;;;;;;;4.10;3.70;;;31.10;96.70;;;34.00;41.82;100403.16;5007857;28;20648;-67
2022/09/07 06:54:19;;;;;;;3.90;3.60;;;31.00;96.20;;;32.56;44.22;100404.91;5009899;28;21004;-66
2022/09/07 06:57:07;;;;;;;6.10;4.17;;;30.40;96.10;;;29.19;52.38;100403.47;5003937;28;20595;-67
2022/09/07 06:59:35;;;;;;;7.60;5.00;;;28.20;98.90;;;27.88;55.89;100399.44;5007941;28;20711;-67
2022/09/07 07:02:02;;;;;;;8.77;5.30;;;27.10;99.90;;;26.24;62.20;100408.41;4990366;28;21097;-68
2022/09/07 07:04:29;;;;;;;5.97;4.27;;;25.50;99.90;;;26.99;60.13;100404.63;5004944;28;20640;-67
2022/09/07 07:06:59;;;;;;;8.77;5.30;;;25.50;99.90;;;27.00;60.34;100396.41;5009927;28;20977;-68
2022/09/07 07:09:25;;;;;;;6.50;4.77;;;25.50;99.90;;;26.73;62.32;100401.19;5009420;28;20673;-65
2022/09/07 07:11:52;;;;;;;6.60;4.30;;;25.30;99.90;;;26.85;60.88;100406.66;5006912;28;21161;-66
2022/09/07 07:14:20;;;;;;;8.07;3.77;;;25.40;99.90;;;27.18;61.53;100401.75;5001521;28;20634;-66
2022/09/07 07:16:46;;;;;;;4.67;3.77;;;25.50;99.90;;;30.55;51.44;100396.06;5009658;28;20618;-66
2022/09/07 07:19:14;;;;;;;4.40;3.63;;;27.40;99.90;;;32.51;46.12;100404.88;5007303;28;21252;-67
2022/09/07 07:21:41;;;;;;;7.73;3.47;;;29.00;99.90;;;32.25;45.36;100403.81;5007466;28;20632;-67
2022/09/07 07:24:28;;;;;;;2.90;2.60;;;29.60;99.70;;;30.19;49.71;100398.41;5010537;28;20618;-67
2022/09/07 07:26:55;;;;;;;6.70;2.60;;;28.80;99.40;;;28.86;52.67;100411.28;5008688;28;21181;-67
2022/09/07 07:29:22;;;;;;;2.77;2.57;;;27.90;99.90;;;27.72;56.93;100411.63;5006061;28;20681;-68
2022/09/07 07:31:53;;;;;;;7.30;2.70;;;26.80;99.90;;;27.15;59.13;100402.22;5004447;28;20627;-66
2022/09/07 07:34:20;;;;;;;4.60;3.10;;;26.30;99.90;;;26.49;61.16;100403.88;4992266;28;20644;-67
2022/09/07 07:36:48;;;;;;;5.20;3.83;;;25.70;99.90;;;26.34;62.04;100401.53;4997648;28;20634;-67
2022/09/07 07:39:15;;;;;;;6.80;3.30;;;25.40;99.90;;;26.33;62.44;100404.41;4995597;28;21089;-68
2022/09/07 07:42:02;;;;;;;6.50;4.30;;;25.20;99.90;;;26.42;62.62;100419.16;4990023;28;20642;-68
2022/09/07 07:44:31;;;;;;;7.20;3.43;;;25.20;99.90;;;26.55;62.44;100421.72;5008149;28;21003;-66
2022/09/07 07:46:58;;;;;;;6.57;3.90;;;25.30;99.90;;;26.64;61.68;100425.75;5008939;28;20609;-68
2022/09/07 07:49:25;;;;;;;4.53;3.00;;;25.40;99.90;;;26.66;62.39;100423.69;5007630;28;21123;-65
2022/09/07 07:51:54;;;;;;;5.80;3.50;;;25.40;99.90;;;26.81;61.89;100425.00;4995389;28;20627;-66
2022/09/07 07:54:42;;;;;;;5.47;3.40;;;25.40;99.90;;;28.10;58.75;100428.22;5006702;28;20594;-66
2022/09/07 07:57:09;;;;;;;4.50;2.97;;;26.20;99.90;;;30.04;53.21;100428.56;5001181;28;21322;-67
2022/09/07 07:59:36;;;;;;;3.00;2.80;;;27.40;99.90;;;30.89;50.34;100431.06;4957430;28;20721;-67
2022/09/07 08:02:06;;;;;;;5.17;3.07;;;28.30;99.90;;;32.70;46.09;100436.63;4996541;28;20649;-67
2022/09/07 08:04:34;;;;;;;2.97;2.53;;;29.50;99.90;;;34.05;42.29;100441.06;5013924;28;20676;-67
2022/09/07 08:07:02;;;;;;;2.93;2.50;;;30.60;98.80;;;35.54;39.18;100434.09;5001573;28;20634;-67
2022/09/07 08:09:39;;;;;;;2.50;2.30;;;31.80;96.50;;;36.11;37.51;100450.63;4989916;28;20677;-68
2022/09/07 08:12:07;;;;;;;2.50;2.30;;;32.40;93.70;;;36.87;35.76;100439.91;5003557;28;20636;-66
2022/09/07 08:14:39;;;;;;;2.30;2.20;;;33.20;91.70;;;37.36;35.43;100450.53;5008116;28;20598;-67
2022/09/07 08:17:10;;;;;;;3.00;2.50;;;33.60;90.90;;;38.30;33.47;100448.69;5007646;28;20741;-67
2022/09/07 08:19:37;;;;;;;2.53;2.43;;;34.20;88.10;;;38.20;33.48;100457.03;5000985;28;21096;-67
2022/09/07 08:22:05;;;;;;;5.10;2.13;;;34.70;84.00;;;39.48;31.40;100454.16;4971935;28;21119;-67
2022/09/07 08:24:33;;;;;;;2.50;2.20;;;35.30;82.30;;;39.77;31.16;100453.00;5006815;28;20725;-67
2022/09/07 08:27:00;;;;;;;2.33;2.10;;;35.30;80.50;;;40.51;29.44;100460.53;5005656;28;20641;-68
2022/09/07 08:29:27;;;;;;;5.33;2.30;;;36.00;77.60;;;41.96;28.32;100473.13;5004971;28;20731;-66
2022/09/07 08:32:00;;;;;;;2.50;2.40;;;36.80;75.30;;;42.41;27.10;100472.50;5012642;28;20712;-67
2022/09/07 08:34:27;;;;;;;2.20;2.07;;;37.40;72.90;;;39.66;30.47;100465.25;5005090;28;20649;-67
2022/09/07 08:36:53;;;;;;;2.63;2.30;;;36.40;71.40;;;41.07;28.74;100464.53;4993853;28;20673;-69
2022/09/07 08:39:21;;;;;;;2.07;1.87;;;36.80;71.50;;;42.66;26.45;100470.06;5004143;28;20664;-67
2022/09/07 08:42:14;;;;;;;2.20;2.10;;;37.50;70.00;;;44.53;24.78;100476.31;5007559;28;21199;-67
2022/09/07 08:44:56;;;;;;;2.43;2.00;;;38.70;68.10;;;46.25;22.52;100473.94;4993035;28;20716;-67
2022/09/07 08:47:49;;;;;;;2.40;2.20;;;39.90;65.20;;;47.58;21.14;100482.13;4998149;28;20637;-68
2022/09/07 08:50:51;;;;;;;2.17;2.07;;;40.80;62.30;;;48.52;20.30;100474.22;5011267;28;20704;-68
2022/09/07 08:53:20;;;;;;;2.10;2.00;;;41.70;59.80;;;49.81;18.75;100478.66;5012846;28;20625;-68
2022/09/07 08:56:09;;;;;;;2.17;2.03;;;42.60;57.90;;;47.69;20.41;100468.56;5010379;28;21286;-68
2022/09/07 08:58:52;;;;;;;1.80;1.70;;;42.40;55.70;;;46.12;22.57;100459.41;5010738;28;21028;-67
2022/09/07 09:01:38;;;;;;;1.67;1.57;;;40.90;57.00;;;46.69;21.96;100470.88;5003831;28;20633;-68
2022/09/07 09:04:22;;;;;;;1.80;1.70;;;41.10;56.50;;;43.07;24.71;100470.25;4985833;28;20641;-68
2022/09/07 09:07:15;;;;;;;1.90;1.80;;;40.20;56.60;;;41.16;27.32;100462.66;4991374;28;20611;-68
2022/09/07 09:10:15;;;;;;;2.70;1.93;;;38.30;59.00;;;41.47;27.27;100461.47;5000181;28;20674;-68
2022/09/07 09:12:56;;;;;;;2.50;2.20;;;37.70;60.50;;;45.93;22.48;100470.28;5005405;28;20745;-68
2022/09/07 09:15:31;;;;;;;1.97;1.57;;;39.40;59.80;;;49.65;19.36;100478.84;4998856;28;20705;-66
2022/09/07 09:18:35;;;;;;;4.00;2.00;;;41.40;57.10;;;52.23;16.67;100468.72;4991765;28;20606;-67
2022/09/07 09:21:05;;;;;;;3.77;2.00;;;43.40;54.30;;;53.70;15.39;100472.66;5000929;28;20641;-65
2022/09/07 09:23:46;;;;;;;2.00;1.90;;;44.90;52.70;;;54.60;15.41;100457.78;4994023;28;20626;-67
2022/09/07 09:26:28;;;;;;;2.60;2.50;;;45.80;50.90;;;53.10;15.57;100460.81;4989736;28;20618;-67
2022/09/07 09:28:56;;;;;;;2.17;1.90;;;45.60;49.70;;;50.61;17.58;100453.81;4974671;28;20732;-67
2022/09/07 09:31:34;;;;;;;3.90;1.70;;;44.90;50.00;;;50.20;17.32;100441.13;4992585;28;21193;-68
2022/09/07 09:34:04;;;;;;;2.00;1.90;;;44.00;50.00;;;49.78;18.00;100440.56;5005141;28;20640;-68
2022/09/07 09:36:43;;;;;;;1.77;1.60;;;43.50;49.80;;;50.73;16.81;100448.00;5000651;28;20637;-68
2022/09/07 09:39:36;;;;;;;2.07;1.87;;;44.20;49.30;;;49.14;18.22;100441.63;5001797;28;21020;-67
2022/09/07 09:42:16;;;;;;;2.10;2.00;;;43.40;49.80;;;49.89;17.83;100441.53;5001068;28;20683;-67
2022/09/07 09:44:44;;;;;;;3.43;2.20;;;43.60;49.50;;;52.45;16.03;100439.72;5005374;28;20644;-66
2022/09/07 09:47:28;;;;;;;2.10;2.00;;;44.90;48.50;;;53.98;14.44;100435.44;5002675;28;20645;-69
2022/09/07 09:50:05;;;;;;;2.07;1.90;;;46.20;47.40;;;55.84;13.59;100449.72;4995626;28;20709;-67
2022/09/07 09:52:35;;;;;;;1.87;1.63;;;47.40;46.60;;;56.68;12.61;100433.63;5005779;28;20702;-69
2022/09/07 09:55:30;;;;;;;2.40;2.30;;;48.30;46.10;;;54.52;14.75;100431.13;5001941;28;20641;-68
2022/09/07 09:58:05;;;;;;;2.37;2.27;;;47.50;45.30;;;52.98;15.49;100427.78;5002928;28;21085;-67
2022/09/07 10:01:05;;;;;;;2.30;2.20;;;47.00;45.20;;;47.59;19.66;100403.56;5001729;28;20630;-67
2022/09/07 10:03:49;;;;;;;1.97;1.87;;;44.50;46.40;;;43.78;23.52;100397.78;4990161;28;20983;-67
2022/09/07 10:06:28;;;;;;;2.40;2.30;;;41.70;48.70;;;41.21;26.53;100385.88;4995218;28;20664;-66
2022/09/07 10:08:58;;;;;;;4.80;1.87;;;39.30;51.30;;;41.00;26.99;100385.63;5001222;28;20662;-67
2022/09/07 10:11:45;;;;;;;3.90;2.27;;;38.30;53.40;;;41.08;27.17;100386.78;5006080;28;20634;-68
2022/09/07 10:14:43;;;;;;;1.97;1.70;;;37.90;54.10;;;42.78;25.45;100385.09;5003088;28;20630;-68
2022/09/07 10:17:27;;;;;;;1.90;1.80;;;38.30;54.10;;;42.76;25.08;100379.16;5008520;28;21201;-68
2022/09/07 10:20:28;;;;;;;2.50;2.00;;;38.50;53.80;;;45.35;22.93;100386.22;4982449;28;20715;-66
2022/09/07 10:22:58;;;;;;;16.47;12.40;;;39.30;53.60;;;44.62;23.34;100383.47;5001534;28;21066;-64
2022/09/07 10:25:29;;;;;;;7.00;5.33;;;39.60;53.00;;;44.53;23.06;100374.53;5008664;28;20642;-66
2022/09/07 10:28:20;;;;;;;2.60;2.40;;;39.60;53.00;;;45.03;22.19;100376.97;5003198;28;20697;-66
2022/09/07 10:31:05;;;;;;;1.90;1.90;;;39.90;51.70;;;43.90;22.86;100359.31;5005989;28;20680;-66
2022/09/07 10:33:55;;;;;;;2.07;1.90;;;39.80;51.30;;;42.02;24.29;100365.75;5001880;28;20633;-66
2022/09/07 10:36:48;;;;;;;2.10;1.77;;;39.00;51.80;;;39.80;27.24;100351.31;4998552;28;20627;-66
2022/09/07 10:39:23;;;;;;;3.17;1.60;;;37.60;53.40;;;38.15;29.73;100348.91;5004051;28;20701;-67
2022/09/07 10:42:25;;;;;;;3.70;2.10;;;36.50;55.10;;;36.99;32.13;100345.16;5003830;28;20642;-67
2022/09/07 10:45:23;;;;;;;3.47;2.20;;;35.60;56.70;;;35.80;33.87;100343.25;5019479;28;20782;-65